Date,TemperatureHighF,TemperatureAvgF,TemperatureLowF,DewpointHighF,DewpointAvgF,DewpointLowF,HumidityHigh,HumidityAvg,HumidityLow,PressureMaxIn,PressureMinIn,WindSpeedMaxMPH,WindSpeedAvgMPH,GustSpeedMaxMPH,PrecipitationSumIn
2014-1-1,55.0,40.8,31.2,50.0,38.4,30.0,96,91,66,30.26,30.15,6,1,8,0.01
2014-1-2,65.2,45.8,33.5,49.0,38.8,32.0,97,79,37,30.21,30.05,7,2,11,0.01
2014-1-3,61.5,45.4,33.8,49.0,40.9,32.0,94,85,55,30.10,29.97,5,2,9,0.01
2014-1-4,57.2,41.3,31.7,50.0,39.1,30.0,96,92,76,30.11,30.00,7,2,10,0.00
2014-1-5,61.9,40.7,27.7,45.0,32.0,26.0,96,75,31,30.25,30.11,5,2,9,0.01
2014-1-6,65.0,48.1,31.8,43.0,34.5,27.0,92,64,25,30.28,30.16,7,1,11,0.00
2014-1-7,59.2,47.7,37.7,51.0,42.0,33.0,94,81,59,30.22,30.13,5,1,7,0.01
2014-1-8,54.1,51.0,49.1,52.0,49.7,48.0,96,95,93,30.25,30.17,6,2,12,0.01
2014-1-9,56.0,50.0,43.1,52.0,48.4,42.0,96,94,84,30.30,30.21,8,2,14,0.02
2014-1-10,55.5,47.6,39.9,53.0,46.4,39.0,96,95,90,30.32,30.20,7,2,10,0.02
2014-1-11,54.1,48.1,39.5,52.0,46.9,39.0,97,95,91,30.31,30.17,14,2,21,0.06
2014-1-12,56.4,45.4,38.8,49.0,42.8,37.0,97,91,72,30.46,30.31,10,2,14,0.01
2014-1-13,61.3,43.7,33.6,49.0,39.2,32.0,96,85,60,30.48,30.37,5,2,7,0.01
2014-1-14,64.1,42.6,31.4,48.0,37.5,30.0,96,84,48,30.49,30.34,5,1,8,0.01
2014-1-15,70.3,46.6,32.5,48.0,36.1,31.0,95,73,28,30.38,30.20,8,2,12,0.01
2014-1-16,70.8,45.6,32.5,46.0,34.4,-99.9,94,71,25,30.26,30.11,6,-8,9,0.00
2014-1-17,73.4,49.9,33.1,44.0,34.6,30.0,93,63,21,30.21,30.09,8,2,11,0.00
2014-1-18,68.8,46.1,33.1,48.0,36.4,30.0,92,73,24,30.21,30.06,8,2,11,0.00
2014-1-19,70.3,47.5,32.9,43.0,34.0,30.0,92,67,26,30.16,30.03,8,2,14,0.00
2014-1-20,64.4,45.5,33.0,48.0,37.6,31.0,94,77,35,30.27,30.12,11,2,12,0.00
2014-1-21,61.1,41.6,30.6,48.0,37.1,29.0,95,85,48,30.31,30.17,7,2,12,0.00
2014-1-22,60.1,42.6,29.4,51.0,38.8,28.0,95,87,54,30.19,29.94,8,2,11,0.01
2014-1-23,67.6,44.5,33.6,49.0,40.1,32.0,96,86,31,30.04,29.86,6,2,11,0.01
2014-1-24,64.6,47.4,36.1,52.0,43.2,35.0,96,86,54,30.29,30.03,8,2,10,0.01
2014-1-25,65.2,48.3,38.4,55.0,43.6,36.0,95,85,53,30.29,30.14,7,2,12,0.01
2014-1-26,62.9,48.6,36.7,53.0,44.5,35.0,93,86,63,30.16,30.04,8,2,12,0.00
2014-1-27,54.5,50.5,46.0,51.0,48.3,44.0,94,92,85,30.22,30.09,7,1,10,0.00
2014-1-28,58.5,54.2,48.4,57.0,52.7,47.0,95,94,92,30.28,30.19,5,1,7,0.01
2014-1-29,55.9,53.9,52.2,55.0,52.8,51.0,96,96,95,30.21,30.02,7,2,11,0.06
2014-1-30,55.5,52.2,49.1,51.0,49.6,46.0,95,90,82,30.01,29.87,12,3,19,0.06
2014-1-31,55.2,46.8,35.1,47.0,41.7,34.0,96,83,59,30.13,29.93,12,4,21,0.01
2014-2-1,39.0,38.8,38.5,37.0,36.8,36.0,93,92,92,30.14,30.13,3,3,5,0.01